Time;durP1;ratioP1;P1;durP2;ratioP2;P2;SDS_P1;SDS_P2;PMS_P1;PMS_P2;Temp;Humidity;BMP_temperature;BMP_pressure;BME280_temperature;BME280_humidity;BME280_pressure;Samples;Min_cycle;Max_cycle;Signal;HPM_P1;HPM_P2
2021/11/19 00:01:25;;;;;;;22.52;11.57;;;6.50;91.10;;;;;;6290351;28;20236;-86
2021/11/19 00:04:31;;;;;;;28.98;11.85;;;6.40;91.10;;;;;;6290815;28;20057;-87
2021/11/19 00:07:33;;;;;;;26.83;11.63;;;6.50;91.20;;;;;;6288808;28;20105;-86
2021/11/19 00:10:36;;;;;;;24.38;10.98;;;6.40;91.20;;;;;;6269240;28;20601;-85
2021/11/19 00:13:38;;;;;;;22.45;10.75;;;6.40;91.30;;;;;;6283777;28;20131;-86
2021/11/19 00:16:42;;;;;;;33.63;11.23;;;6.30;91.20;;;;;;6293819;28;20109;-88
2021/11/19 00:19:46;;;;;;;28.63;12.32;;;6.30;91.30;;;;;;6293191;28;20083;-85
2021/11/19 00:22:49;;;;;;;19.42;10.25;;;6.30;91.40;;;;;;6291233;28;20132;-84
2021/11/19 00:25:50;;;;;;;25.60;11.73;;;6.30;91.40;;;;;;6279855;28;20049;-82
2021/11/19 00:28:53;;;;;;;24.15;12.10;;;6.20;91.40;;;;;;6277919;28;20056;-82
2021/11/19 00:31:55;;;;;;;30.02;12.65;;;6.20;91.50;;;;;;6278813;28;20414;-83
2021/11/19 00:34:59;;;;;;;21.23;12.18;;;6.30;91.50;;;;;;6279848;28;20522;-83
2021/11/19 00:38:01;;;;;;;32.25;11.70;;;6.20;91.50;;;;;;6279425;28;20126;-83
2021/11/19 00:41:05;;;;;;;24.48;11.88;;;6.20;91.50;;;;;;6278378;28;20107;-83
2021/11/19 00:44:10;;;;;;;26.90;11.75;;;6.20;91.50;;;;;;6278243;28;20056;-81
2021/11/19 00:47:12;;;;;;;28.17;12.07;;;6.20;91.50;;;;;;6279581;28;20048;-82
2021/11/19 00:50:15;;;;;;;29.92;13.07;;;6.20;91.70;;;;;;6278571;28;20171;-82
2021/11/19 00:53:17;;;;;;;29.27;12.52;;;6.30;91.80;;;;;;6278936;28;20045;-83
2021/11/19 00:56:21;;;;;;;32.65;14.52;;;6.40;91.60;;;;;;6280875;28;20064;-82
2021/11/19 00:59:27;;;;;;;22.42;12.27;;;6.60;91.40;;;;;;6284406;28;20041;-82
2021/11/19 01:02:29;;;;;;;28.77;12.95;;;6.70;91.20;;;;;;6284816;28;20045;-82
2021/11/19 01:05:32;;;;;;;28.48;11.68;;;6.80;91.10;;;;;;6284760;28;20124;-82
2021/11/19 01:08:35;;;;;;;26.13;11.93;;;6.90;91.00;;;;;;6284589;28;20057;-82
2021/11/19 01:11:39;;;;;;;27.05;11.63;;;7.00;90.90;;;;;;6283584;28;20049;-82
2021/11/19 01:14:45;;;;;;;29.38;12.48;;;7.10;90.80;;;;;;6283266;28;20037;-84
2021/11/19 01:17:53;;;;;;;29.15;12.05;;;7.10;90.70;;;;;;6284789;28;20040;-82
2021/11/19 01:21:00;;;;;;;26.70;11.80;;;7.20;90.70;;;;;;6284299;28;20060;-82
2021/11/19 01:24:02;;;;;;;34.35;11.07;;;7.20;90.60;;;;;;6283549;28;20099;-82
2021/11/19 01:27:05;;;;;;;28.00;11.52;;;7.30;90.50;;;;;;6283147;28;20059;-82
2021/11/19 01:30:10;;;;;;;28.02;11.90;;;7.30;90.50;;;;;;6283656;28;20055;-82
2021/11/19 01:33:12;;;;;;;29.35;11.52;;;7.30;90.50;;;;;;6283330;28;20076;-81
2021/11/19 01:36:16;;;;;;;25.08;11.25;;;7.40;90.50;;;;;;6283131;28;20067;-82
2021/11/19 01:39:21;;;;;;;31.95;12.30;;;7.40;90.50;;;;;;6281791;28;20104;-83
2021/11/19 01:42:26;;;;;;;34.20;12.55;;;7.40;90.40;;;;;;6281963;28;20479;-83
2021/11/19 01:45:31;;;;;;;29.05;12.35;;;7.50;90.40;;;;;;6282394;28;20418;-83
2021/11/19 01:48:39;;;;;;;27.90;11.13;;;7.50;90.40;;;;;;6282629;28;20049;-84
2021/11/19 01:51:47;;;;;;;25.50;11.95;;;7.50;90.40;;;;;;6282448;28;20049;-83
2021/11/19 01:54:54;;;;;;;32.33;12.27;;;7.60;90.30;;;;;;6286843;28;20049;-80
2021/11/19 01:58:15;;;;;;;30.63;12.70;;;7.60;90.30;;;;;;6277497;28;20055;-81
2021/11/19 02:01:20;;;;;;;29.85;10.82;;;7.70;90.20;;;;;;6280530;28;20101;-80
2021/11/19 02:04:25;;;;;;;23.73;11.18;;;7.70;90.40;;;;;;6284729;28;20056;-83
2021/11/19 02:07:31;;;;;;;25.38;10.73;;;7.70;90.10;;;;;;6288499;28;20041;-82
2021/11/19 02:10:46;;;;;;;30.40;13.68;;;7.80;90.10;;;;;;6294614;28;20118;-84
2021/11/19 02:13:55;;;;;;;31.75;10.93;;;7.80;90.00;;;;;;6292850;28;20113;-83
2021/11/19 02:17:01;;;;;;;27.38;11.40;;;7.80;90.30;;;;;;6295769;28;20073;-85
2021/11/19 02:20:08;;;;;;;21.95;10.32;;;7.80;89.70;;;;;;6297073;28;20072;-85
2021/11/19 02:23:15;;;;;;;35.08;12.13;;;7.90;89.80;;;;;;6285091;28;20059;-84
2021/11/19 02:26:19;;;;;;;28.83;12.68;;;7.80;89.80;;;;;;6285001;28;20045;-86
2021/11/19 02:29:21;;;;;;;26.45;11.82;;;7.80;89.80;;;;;;6287390;28;20103;-86
2021/11/19 02:32:27;;;;;;;33.65;11.90;;;7.90;89.60;;;;;;6285897;28;20414;-86
2021/11/19 02:35:31;;;;;;;36.85;13.13;;;8.00;89.50;;;;;;6285338;28;20128;-82
2021/11/19 02:38:39;;;;;;;24.90;11.55;;;8.00;89.60;;;;;;6286666;28;20051;-83
2021/11/19 02:41:46;;;;;;;27.08;10.32;;;8.00;89.50;;;;;;6287644;28;20112;-84
2021/11/19 02:44:49;;;;;;;23.52;11.07;;;8.00;89.40;;;;;;6287564;28;20049;-85
2021/11/19 02:47:51;;;;;;;26.13;10.55;;;8.00;89.50;;;;;;6287773;28;20132;-84
2021/11/19 02:50:55;;;;;;;25.55;10.70;;;7.90;89.40;;;;;;6287748;28;20075;-83
2021/11/19 02:53:58;;;;;;;30.00;10.60;;;7.90;89.50;;;;;;6290388;28;20648;-85
2021/11/19 02:57:02;;;;;;;26.67;10.93;;;8.00;89.60;;;;;;6288308;28;20048;-86
2021/11/19 03:00:09;;;;;;;25.52;10.52;;;8.10;89.30;;;;;;6289760;28;20131;-81
2021/11/19 03:03:11;;;;;;;23.47;9.97;;;8.20;89.20;;;;;;6299184;28;20043;-84
2021/11/19 03:06:13;;;;;;;26.65;10.43;;;8.10;88.80;;;;;;6301462;28;20361;-80
2021/11/19 03:09:21;;;;;;;26.17;12.65;;;8.10;88.80;;;;;;6283067;28;20051;-85
2021/11/19 03:12:26;;;;;;;23.15;10.68;;;8.10;89.10;;;;;;6282984;28;20494;-88
2021/11/19 03:15:34;;;;;;;23.85;9.18;;;8.10;89.00;;;;;;6284069;28;20044;-88
2021/11/19 03:18:36;;;;;;;28.67;11.07;;;8.20;89.10;;;;;;6285321;28;20064;-88
2021/11/19 03:21:39;;;;;;;23.73;9.10;;;8.20;88.80;;;;;;6286079;28;20052;-87
2021/11/19 03:24:42;;;;;;;29.55;9.65;;;8.20;88.80;;;;;;6287070;28;20048;-86
2021/11/19 03:27:46;;;;;;;29.52;10.43;;;8.20;89.20;;;;;;6286338;28;20495;-86
2021/11/19 03:30:50;;;;;;;22.67;9.80;;;8.20;88.80;;;;;;6285885;28;20049;-88
2021/11/19 03:33:53;;;;;;;20.83;9.93;;;8.10;88.80;;;;;;6288288;28;20495;-88
2021/11/19 03:36:56;;;;;;;21.40;9.73;;;8.20;89.00;;;;;;6289041;28;20136;-85
2021/11/19 03:39:59;;;;;;;27.50;11.23;;;8.20;88.80;;;;;;6286291;28;20067;-87
2021/11/19 03:43:03;;;;;;;23.95;9.77;;;8.20;89.00;;;;;;6287314;28;20053;-84
2021/11/19 03:46:07;;;;;;;27.88;10.02;;;8.20;88.80;;;;;;6286514;28;20064;-86
2021/11/19 03:49:09;;;;;;;19.85;9.70;;;8.30;88.80;;;;;;6287105;28;20128;-87
2021/11/19 03:52:13;;;;;;;30.27;11.75;;;8.30;88.40;;;;;;6288064;28;20057;-88
2021/11/19 03:55:19;;;;;;;22.33;9.07;;;8.40;88.50;;;;;;6285273;28;20099;-83
2021/11/19 03:58:23;;;;;;;24.55;10.40;;;8.40;88.40;;;;;;6284759;28;20056;-83
2021/11/19 04:01:28;;;;;;;28.33;10.77;;;8.40;88.20;;;;;;6284517;28;20469;-86
2021/11/19 04:04:32;;;;;;;25.90;9.52;;;8.40;88.00;;;;;;6285349;28;20049;-87
2021/11/19 04:07:34;;;;;;;36.35;11.55;;;8.40;88.10;;;;;;6287836;28;20124;-85
2021/11/19 04:10:38;;;;;;;30.23;11.10;;;8.40;88.10;;;;;;6285121;28;20140;-85
2021/11/19 04:13:41;;;;;;;20.77;9.75;;;8.50;88.10;;;;;;6285442;28;20450;-81
2021/11/19 04:16:46;;;;;;;27.45;9.68;;;8.50;87.90;;;;;;6282980;28;20060;-88
2021/11/19 04:19:48;;;;;;;23.95;12.68;;;8.50;87.80;;;;;;6285461;28;20055;-87
2021/11/19 04:22:51;;;;;;;27.52;10.32;;;8.60;87.70;;;;;;6286227;28;20060;-85
2021/11/19 04:25:56;;;;;;;25.15;8.98;;;8.50;87.80;;;;;;6287215;28;20049;-84
2021/11/19 04:28:57;;;;;;;31.27;11.73;;;8.60;87.70;;;;;;6287407;28;20117;-86
2021/11/19 04:31:59;;;;;;;25.83;10.50;;;8.60;87.60;;;;;;6289022;28;20059;-85
2021/11/19 04:35:02;;;;;;;24.45;10.75;;;8.60;87.60;;;;;;6289909;28;20182;-87
2021/11/19 04:38:04;;;;;;;31.45;10.32;;;8.60;88.30;;;;;;6291516;28;20037;-88
2021/11/19 04:41:08;;;;;;;20.52;11.35;;;8.70;87.60;;;;;;6296273;28;20045;-85
2021/11/19 04:44:10;;;;;;;20.92;10.45;;;8.60;87.70;;;;;;6293029;28;20053;-87
2021/11/19 04:47:12;;;;;;;26.35;11.10;;;8.60;87.80;;;;;;6292114;28;20064;-87
2021/11/19 04:50:16;;;;;;;21.40;9.60;;;8.60;87.90;;;;;;6294514;28;20116;-84
2021/11/19 04:53:20;;;;;;;23.52;10.88;;;8.60;87.90;;;;;;6295038;28;20122;-84
2021/11/19 04:56:24;;;;;;;26.27;10.30;;;8.60;87.60;;;;;;6293668;28;20104;-85
2021/11/19 04:59:26;;;;;;;20.17;10.18;;;8.60;87.60;;;;;;6293492;28;20087;-83
2021/11/19 05:02:28;;;;;;;26.48;11.10;;;8.60;87.80;;;;;;6290512;28;20068;-82
2021/11/19 05:05:30;;;;;;;29.27;10.60;;;8.60;87.80;;;;;;6286689;28;20056;-86
2021/11/19 05:08:33;;;;;;;22.42;10.98;;;8.70;87.70;;;;;;6298354;28;20049;-86
2021/11/19 05:11:50;;;;;;;24.85;10.00;;;8.70;87.50;;;;;;6283466;28;20044;-82
2021/11/19 05:14:52;;;;;;;25.17;11.32;;;8.60;87.60;;;;;;6281839;28;20049;-84
2021/11/19 05:17:54;;;;;;;28.73;10.32;;;8.60;87.60;;;;;;6281984;28;20124;-84
2021/11/19 05:20:56;;;;;;;22.77;9.13;;;8.60;87.60;;;;;;6282492;28;20041;-85
2021/11/19 05:23:58;;;;;;;27.85;10.32;;;8.60;87.70;;;;;;6281978;28;20494;-83
2021/11/19 05:27:01;;;;;;;24.33;11.07;;;8.50;87.80;;;;;;6279896;28;20530;-85
2021/11/19 05:30:06;;;;;;;20.58;8.93;;;8.60;87.80;;;;;;6279681;28;20071;-83
2021/11/19 05:33:09;;;;;;;29.80;10.10;;;8.60;87.90;;;;;;6280550;28;20051;-83
2021/11/19 05:36:12;;;;;;;31.83;10.95;;;8.70;87.70;;;;;;6281232;28;20068;-86
2021/11/19 05:39:15;;;;;;;34.13;10.38;;;8.60;87.70;;;;;;6281279;28;20048;-83
2021/11/19 05:42:18;;;;;;;25.20;9.40;;;8.70;87.70;;;;;;6280447;28;20069;-84
2021/11/19 05:45:23;;;;;;;21.90;9.35;;;8.70;87.50;;;;;;6280293;28;20072;-81
2021/11/19 05:48:25;;;;;;;24.05;9.23;;;8.80;87.40;;;;;;6282012;28;20130;-84
2021/11/19 05:51:28;;;;;;;25.10;10.05;;;8.80;87.30;;;;;;6283066;28;20052;-84
2021/11/19 05:54:32;;;;;;;26.13;8.88;;;8.80;87.00;;;;;;6282040;28;20108;-84
2021/11/19 05:57:35;;;;;;;20.83;9.38;;;8.80;87.20;;;;;;6282009;28;20040;-85
2021/11/19 06:00:40;;;;;;;26.83;9.95;;;8.80;87.20;;;;;;6282569;28;20491;-83
2021/11/19 06:03:42;;;;;;;26.73;9.95;;;8.80;87.20;;;;;;6282408;28;20514;-86
2021/11/19 06:06:44;;;;;;;25.98;9.18;;;8.80;87.20;;;;;;6283021;28;20124;-85
2021/11/19 06:09:48;;;;;;;22.65;8.75;;;8.80;87.20;;;;;;6282629;28;20045;-86
2021/11/19 06:12:54;;;;;;;30.60;9.32;;;8.80;87.30;;;;;;6282914;28;20049;-83
2021/11/19 06:16:01;;;;;;;20.58;9.05;;;8.80;87.10;;;;;;6281975;28;20049;-85
2021/11/19 06:19:05;;;;;;;18.63;8.80;;;8.80;87.10;;;;;;6281567;28;20114;-85
2021/11/19 06:22:11;;;;;;;21.85;9.95;;;8.80;87.10;;;;;;6282738;28;20599;-85
2021/11/19 06:25:15;;;;;;;18.33;9.32;;;8.80;87.20;;;;;;6282315;28;20053;-84
2021/11/19 06:28:26;;;;;;;26.05;10.93;;;8.80;87.30;;;;;;6282502;28;20576;-84
2021/11/19 06:31:28;;;;;;;23.23;9.73;;;8.90;87.20;;;;;;6284007;28;20045;-82
2021/11/19 06:34:31;;;;;;;24.55;9.15;;;8.90;87.20;;;;;;6283914;28;20522;-84
2021/11/19 06:37:33;;;;;;;24.42;10.27;;;9.10;87.20;;;;;;6283868;28;20049;-85
2021/11/19 06:40:36;;;;;;;23.63;9.10;;;9.10;86.90;;;;;;6284702;28;20073;-82
2021/11/19 06:43:40;;;;;;;25.65;10.32;;;9.10;86.60;;;;;;6291349;28;20061;-82
2021/11/19 06:46:43;;;;;;;20.80;9.30;;;9.10;86.40;;;;;;6290624;28;20045;-83
2021/11/19 06:53:20;;;;;;;27.08;7.80;;;9.10;86.50;;;;;;6255038;28;20041;-82
2021/11/19 06:56:30;;;;;;;25.35;9.63;;;9.10;86.40;;;;;;6279369;28;20049;-81
2021/11/19 06:59:46;;;;;;;32.15;9.50;;;9.20;86.30;;;;;;6277753;28;20052;-81
2021/11/19 07:03:36;;;;;;;21.30;7.60;;;9.30;86.10;;;;;;6253955;28;20057;-82
2021/11/19 07:06:40;;;;;;;25.08;8.95;;;9.10;86.00;;;;;;6253322;28;20060;-81
2021/11/19 07:09:42;;;;;;;23.88;9.63;;;9.10;86.00;;;;;;6280424;28;20055;-81
2021/11/19 07:12:44;;;;;;;33.28;10.55;;;9.10;85.70;;;;;;6281062;28;20550;-82
2021/11/19 07:15:47;;;;;;;23.52;9.90;;;9.10;86.30;;;;;;6281631;28;20132;-82
2021/11/19 07:18:50;;;;;;;24.20;10.00;;;9.10;85.60;;;;;;6280885;28;20502;-82
2021/11/19 07:21:53;;;;;;;28.70;10.57;;;9.00;85.80;;;;;;6282887;28;20069;-82
2021/11/19 07:24:55;;;;;;;28.80;8.88;;;8.90;86.10;;;;;;6282402;28;20060;-82
2021/11/19 07:27:59;;;;;;;29.08;12.02;;;8.90;86.30;;;;;;6282344;28;20053;-82
2021/11/19 07:31:04;;;;;;;22.73;9.43;;;8.90;86.20;;;;;;6283243;28;20136;-82
2021/11/19 07:34:06;;;;;;;24.42;10.57;;;8.90;86.40;;;;;;6282638;28;20120;-82
2021/11/19 07:37:08;;;;;;;22.38;9.52;;;9.00;86.80;;;;;;6282133;28;20072;-82
2021/11/19 07:40:13;;;;;;;30.27;11.38;;;9.10;86.00;;;;;;6281411;28;20680;-81
2021/11/19 07:43:16;;;;;;;21.95;10.98;;;9.10;86.00;;;;;;6284185;28;20064;-82
2021/11/19 07:46:22;;;;;;;25.05;9.85;;;9.20;85.60;;;;;;6280418;28;20087;-82
2021/11/19 07:49:25;;;;;;;23.17;8.45;;;9.20;85.30;;;;;;6241075;28;20103;-80
2021/11/19 07:52:27;;;;;;;29.55;10.02;;;9.20;85.40;;;;;;6275153;28;20498;-80
2021/11/19 07:55:29;;;;;;;22.45;9.63;;;9.30;85.20;;;;;;6279373;28;20106;-81
2021/11/19 07:58:32;;;;;;;18.42;7.97;;;9.30;85.00;;;;;;6280028;28;20118;-82
2021/11/19 08:01:36;;;;;;;16.63;8.27;;;9.40;84.80;;;;;;6280174;28;20045;-82
2021/11/19 08:04:38;;;;;;;21.15;9.00;;;9.50;84.30;;;;;;6278415;28;20076;-82
2021/11/19 08:07:40;;;;;;;28.95;8.60;;;9.50;84.30;;;;;;6278431;28;20045;-82
2021/11/19 08:10:48;;;;;;;24.83;8.65;;;9.50;84.20;;;;;;6280932;28;20079;-82
2021/11/19 08:13:51;;;;;;;23.23;8.52;;;9.50;83.80;;;;;;6273833;28;20038;-82
2021/11/19 08:17:01;;;;;;;23.88;9.25;;;9.50;84.40;;;;;;6254970;28;20132;-84
2021/11/19 08:20:05;;;;;;;26.70;10.13;;;9.50;83.60;;;;;;6273061;28;20049;-80
2021/11/19 08:23:10;;;;;;;21.48;8.52;;;9.50;83.80;;;;;;6258192;28;20046;-80
2021/11/19 08:26:15;;;;;;;20.15;8.32;;;9.60;84.00;;;;;;6253372;28;20132;-82
2021/11/19 08:29:21;;;;;;;21.05;9.05;;;9.80;83.40;;;;;;6253132;28;20042;-81
2021/11/19 08:32:26;;;;;;;16.60;8.40;;;9.70;82.90;;;;;;6233083;28;20129;-79
2021/11/19 08:35:29;;;;;;;18.88;8.02;;;9.70;82.60;;;;;;6230578;28;20053;-82
2021/11/19 08:38:31;;;;;;;13.68;6.15;;;9.80;82.10;;;;;;6247345;28;20495;-82
2021/11/19 08:41:33;;;;;;;20.25;7.60;;;9.80;81.70;;;;;;6255576;28;20073;-82
2021/11/19 08:44:36;;;;;;;22.35;6.82;;;9.90;81.60;;;;;;6254180;28;20073;-82
2021/11/19 08:47:39;;;;;;;17.08;7.22;;;9.90;81.10;;;;;;6259411;28;20084;-80
2021/11/19 08:50:42;;;;;;;13.43;7.43;;;10.10;80.90;;;;;;6269604;28;20484;-81
2021/11/19 08:53:44;;;;;;;21.25;7.18;;;10.10;80.40;;;;;;6281165;28;20064;-83
2021/11/19 08:56:49;;;;;;;14.57;6.32;;;10.20;80.60;;;;;;6279770;28;20196;-82
2021/11/19 08:59:53;;;;;;;14.35;7.25;;;10.30;80.50;;;;;;6276702;28;20049;-83
2021/11/19 09:02:57;;;;;;;14.90;5.47;;;10.50;79.90;;;;;;6277582;28;20494;-82
2021/11/19 09:06:00;;;;;;;16.05;6.65;;;10.40;79.30;;;;;;6276161;28;20669;-82
2021/11/19 09:09:03;;;;;;;13.85;6.72;;;10.60;78.90;;;;;;6279374;28;20141;-83
2021/11/19 09:12:06;;;;;;;18.10;7.00;;;10.70;79.00;;;;;;6280930;28;20049;-82
2021/11/19 09:15:10;;;;;;;14.15;5.78;;;10.80;77.80;;;;;;6278848;28;20079;-82
2021/11/19 09:18:27;;;;;;;20.55;7.88;;;10.80;77.50;;;;;;6280854;28;20140;-82
2021/11/19 09:21:33;;;;;;;13.43;6.07;;;10.80;77.60;;;;;;6284225;28;20045;-82
2021/11/19 09:24:37;;;;;;;14.02;5.78;;;11.00;77.30;;;;;;6284894;28;20096;-82
2021/11/19 09:27:39;;;;;;;16.70;5.40;;;11.00;77.00;;;;;;6283350;28;20056;-82
2021/11/19 09:30:45;;;;;;;18.35;6.07;;;11.00;76.10;;;;;;6283035;28;20450;-82
2021/11/19 09:33:50;;;;;;;15.13;5.75;;;10.90;75.80;;;;;;6287921;28;20055;-82
2021/11/19 09:36:52;;;;;;;11.57;6.05;;;10.80;76.20;;;;;;6285688;28;20123;-82
2021/11/19 09:39:55;;;;;;;15.00;6.53;;;11.00;75.80;;;;;;6286743;28;20128;-81
2021/11/19 09:43:04;;;;;;;12.73;5.63;;;10.90;75.50;;;;;;6282002;28;20135;-81
2021/11/19 09:46:42;;;;;;;20.15;6.03;;;10.80;75.90;;;;;;6282276;28;20045;-81
2021/11/19 09:50:15;;;;;;;12.07;5.22;;;10.80;76.20;;;;;;6279847;28;20474;-81
2021/11/19 09:53:59;;;;;;;12.70;5.30;;;10.90;76.40;;;;;;6281435;28;20128;-82
2021/11/19 09:57:36;;;;;;;15.30;5.60;;;11.00;76.40;;;;;;6280710;28;20116;-82
2021/11/19 10:00:55;;;;;;;12.13;5.43;;;11.20;75.80;;;;;;6281048;28;20113;-82
2021/11/19 10:04:32;;;;;;;11.05;5.75;;;11.10;75.70;;;;;;6257074;28;20084;-81
2021/11/19 10:07:44;;;;;;;11.32;5.60;;;11.10;75.60;;;;;;6280397;28;20131;-81
2021/11/19 10:11:09;;;;;;;14.52;5.63;;;11.20;75.50;;;;;;6280802;28;20127;-81
2021/11/19 10:14:35;;;;;;;13.38;5.80;;;11.20;75.90;;;;;;6281992;28;20056;-81
2021/11/19 10:17:48;;;;;;;17.85;6.53;;;11.30;75.20;;;;;;6271571;28;20044;-82
2021/11/19 10:21:03;;;;;;;12.52;6.32;;;11.20;75.40;;;;;;6257025;28;20128;-82
2021/11/19 10:24:14;;;;;;;15.90;6.97;;;11.30;75.60;;;;;;6292748;28;20107;-81
2021/11/19 10:27:20;;;;;;;15.38;8.02;;;11.30;74.90;;;;;;6287038;28;20052;-82
2021/11/19 10:30:32;;;;;;;13.68;5.78;;;11.30;74.80;;;;;;6278593;28;20076;-81
2021/11/19 10:33:37;;;;;;;14.35;5.80;;;11.20;74.80;;;;;;6278920;28;20124;-82
2021/11/19 10:36:42;;;;;;;18.38;7.38;;;11.10;75.00;;;;;;6280195;28;20108;-82
2021/11/19 10:40:07;;;;;;;17.40;7.25;;;11.10;75.30;;;;;;6256049;28;20113;-82
2021/11/19 10:43:26;;;;;;;15.15;6.20;;;11.00;75.50;;;;;;6274937;28;20126;-81
2021/11/19 10:47:20;;;;;;;18.55;7.50;;;10.90;75.80;;;;;;6278337;28;20105;-82
2021/11/19 10:51:00;;;;;;;13.40;6.25;;;11.00;76.00;;;;;;6211685;28;20235;-82
2021/11/19 10:54:41;;;;;;;16.08;6.70;;;11.10;75.40;;;;;;6253756;28;20128;-82
2021/11/19 10:58:17;;;;;;;14.55;5.80;;;11.00;75.50;;;;;;6255204;28;20095;-81
2021/11/19 11:01:36;;;;;;;16.00;6.45;;;11.00;75.90;;;;;;6255614;28;20049;-81
2021/11/19 11:04:39;;;;;;;;;;;11.00;75.80;;;;;;6256115;28;20138;-79
2021/11/19 11:07:59;;;;;;;16.92;5.90;;;11.00;76.00;;;;;;6253622;28;20581;-81
2021/11/19 11:11:04;;;;;;;19.45;6.38;;;11.10;76.00;;;;;;6252749;28;20056;-81
2021/11/19 11:14:08;;;;;;;15.60;6.70;;;11.30;75.70;;;;;;6253254;28;20067;-81
2021/11/19 11:17:26;;;;;;;21.67;6.10;;;11.30;75.50;;;;;;6253917;28;20052;-82
2021/11/19 11:20:31;;;;;;;16.83;6.07;;;11.40;75.30;;;;;;6269527;28;20053;-80
2021/11/19 11:23:36;;;;;;;16.15;6.50;;;11.50;75.20;;;;;;6255559;28;20580;-81
2021/11/19 11:26:44;;;;;;;13.07;6.18;;;11.50;75.10;;;;;;6269631;28;20399;-81
2021/11/19 11:30:00;;;;;;;12.73;6.22;;;11.60;75.00;;;;;;6276591;28;20544;-79
2021/11/19 11:34:04;;;;;;;21.85;7.03;;;11.70;74.80;;;;;;6284807;28;20075;-79
2021/11/19 11:37:19;;;;;;;13.95;5.25;;;11.80;74.60;;;;;;6281286;28;20172;-81
2021/11/19 11:40:36;;;;;;;14.88;5.22;;;11.90;74.20;;;;;;6280666;28;20049;-82
2021/11/19 11:43:41;;;;;;;13.93;7.40;;;11.90;74.00;;;;;;6279656;28;20048;-83
2021/11/19 11:46:59;;;;;;;11.65;5.72;;;11.80;73.90;;;;;;6280791;28;20051;-79
2021/11/19 11:50:18;;;;;;;;;;;11.80;74.30;;;;;;6268368;28;20046;-78
2021/11/19 11:53:23;;;;;;;17.77;5.63;;;11.90;74.10;;;;;;6254270;28;19921;-79
2021/11/19 11:56:28;;;;;;;15.32;7.05;;;11.90;73.90;;;;;;6255498;28;20463;-82
2021/11/19 11:59:35;;;;;;;11.45;4.50;;;11.90;74.20;;;;;;6255131;28;20416;-81
2021/11/19 12:02:49;;;;;;;9.43;4.60;;;11.90;74.20;;;;;;6254072;28;20060;-80
2021/11/19 12:05:56;;;;;;;7.95;4.75;;;11.90;73.70;;;;;;6254783;28;20048;-81
2021/11/19 12:09:12;;;;;;;7.50;4.20;;;11.90;74.50;;;;;;6254571;28;20060;-81
2021/11/19 12:12:29;;;;;;;8.88;4.07;;;11.90;74.00;;;;;;6255651;28;20077;-81
2021/11/19 12:15:40;;;;;;;12.00;5.38;;;11.80;74.10;;;;;;6254328;28;20419;-81
2021/11/19 12:18:47;;;;;;;10.30;4.15;;;11.60;74.60;;;;;;6253723;28;20594;-81
2021/11/19 12:21:55;;;;;;;7.63;3.85;;;11.50;74.90;;;;;;6247396;28;20430;-80
2021/11/19 12:25:25;;;;;;;14.65;5.35;;;11.60;75.40;;;;;;6255637;28;20058;-81
2021/11/19 12:28:33;;;;;;;8.63;3.28;;;11.60;75.20;;;;;;6255491;28;20064;-82
2021/11/19 12:31:40;;;;;;;8.10;3.78;;;11.50;75.30;;;;;;6254427;28;20066;-81
2021/11/19 12:34:54;;;;;;;10.10;4.30;;;11.60;75.30;;;;;;6254498;28;20119;-80
2021/11/19 12:38:05;;;;;;;15.10;5.70;;;11.70;75.50;;;;;;6254772;28;20049;-80
2021/11/19 12:41:12;;;;;;;10.45;4.00;;;11.60;75.60;;;;;;6253721;28;20128;-81
2021/11/19 12:44:29;;;;;;;12.53;4.83;;;11.50;75.70;;;;;;6255595;28;20065;-81
2021/11/19 12:48:16;;;;;;;12.93;5.10;;;11.60;76.00;;;;;;6254592;28;20054;-82
2021/11/19 12:51:25;;;;;;;15.10;7.55;;;11.70;76.00;;;;;;6251337;28;20491;-82
2021/11/19 12:54:44;;;;;;;15.98;9.00;;;11.90;75.60;;;;;;6257438;28;20208;-84
2021/11/19 12:58:02;;;;;;;15.32;7.82;;;11.90;75.40;;;;;;6257652;28;20128;-81
2021/11/19 13:01:24;;;;;;;11.57;4.78;;;11.90;75.30;;;;;;6251884;28;20104;-83
2021/11/19 13:04:36;;;;;;;26.35;16.48;;;11.90;75.20;;;;;;6245797;28;20053;-80
2021/11/19 13:07:54;;;;;;;7.88;2.95;;;11.90;75.30;;;;;;6273218;28;20057;-80
2021/11/19 13:11:45;;;;;;;9.03;4.03;;;11.90;75.50;;;;;;6272049;28;20105;-79
2021/11/19 13:14:49;;;;;;;8.25;4.07;;;11.80;75.60;;;;;;6264485;28;20310;-79
2021/11/19 13:18:32;;;;;;;6.70;3.65;;;11.70;75.50;;;;;;6273669;28;20049;-78
2021/11/19 13:21:46;;;;;;;10.07;3.58;;;11.70;76.50;;;;;;6270718;28;20049;-80
2021/11/19 13:24:50;;;;;;;6.97;3.28;;;11.50;76.20;;;;;;6273841;28;20091;-79
2021/11/19 13:27:56;;;;;;;9.30;3.30;;;11.50;76.60;;;;;;6270760;28;20407;-80
2021/11/19 13:31:27;;;;;;;9.45;3.78;;;11.50;77.00;;;;;;6271277;28;20025;-82
2021/11/19 13:34:46;;;;;;;8.80;3.65;;;11.50;77.10;;;;;;6270415;28;20052;-77
2021/11/19 13:38:09;;;;;;;11.73;3.50;;;11.50;77.00;;;;;;6264497;28;20107;-83
2021/11/19 13:41:26;;;;;;;10.00;3.20;;;11.50;77.00;;;;;;6257078;28;20045;-81
2021/11/19 13:44:59;;;;;;;12.80;3.72;;;11.50;77.20;;;;;;6258170;28;20187;-82
2021/11/19 13:48:20;;;;;;;7.80;3.00;;;11.50;77.40;;;;;;6282090;28;20483;-83
2021/11/19 13:51:42;;;;;;;7.28;2.88;;;11.50;77.60;;;;;;6281137;28;20055;-84
2021/11/19 13:54:46;;;;;;;6.75;3.25;;;11.50;77.60;;;;;;6281653;28;20092;-82
2021/11/19 13:57:54;;;;;;;5.90;2.90;;;11.40;77.50;;;;;;6284943;28;20126;-81
2021/11/19 14:01:01;;;;;;;6.28;3.10;;;11.40;77.80;;;;;;6293998;28;20072;-81
2021/11/19 14:04:07;;;;;;;6.28;2.95;;;11.30;78.10;;;;;;6253931;28;20053;-80
2021/11/19 14:07:17;;;;;;;13.95;3.08;;;11.30;78.50;;;;;;6276334;28;20045;-83
2021/11/19 14:10:24;;;;;;;7.95;3.15;;;11.20;78.60;;;;;;6280119;28;20040;-82
2021/11/19 14:13:32;;;;;;;10.50;4.82;;;11.20;78.90;;;;;;6280779;28;20107;-79
2021/11/19 14:16:35;;;;;;;7.28;2.78;;;11.20;79.40;;;;;;6281771;28;20139;-82
2021/11/19 14:19:48;;;;;;;6.45;2.78;;;11.20;79.30;;;;;;6275065;28;20049;-82
2021/11/19 14:22:56;;;;;;;5.95;3.33;;;11.20;79.80;;;;;;6289660;28;20060;-80
2021/11/19 14:26:04;;;;;;;7.97;3.55;;;11.10;79.30;;;;;;6279985;28;20048;-79
2021/11/19 14:29:08;;;;;;;;;;;11.10;79.60;;;;;;6270415;28;20071;-81
2021/11/19 14:32:22;;;;;;;7.15;2.85;;;11.10;79.80;;;;;;6270906;28;19921;-79
2021/11/19 14:35:28;;;;;;;5.13;2.63;;;11.00;79.50;;;;;;6267681;28;20057;-79
2021/11/19 14:38:33;;;;;;;5.80;2.67;;;11.10;79.90;;;;;;6270249;28;20111;-78
2021/11/19 14:41:45;;;;;;;5.47;3.28;;;11.00;79.90;;;;;;6270652;28;20042;-79
2021/11/19 14:44:50;;;;;;;6.93;3.22;;;10.90;80.00;;;;;;6269043;28;20057;-83
2021/11/19 14:48:00;;;;;;;6.15;3.30;;;10.90;80.30;;;;;;6261698;28;20053;-83
2021/11/19 14:51:06;;;;;;;8.52;2.92;;;10.90;80.40;;;;;;6247595;28;20136;-79
2021/11/19 14:54:34;;;;;;;6.57;2.83;;;10.90;80.50;;;;;;6264441;28;20045;-78
2021/11/19 14:57:47;;;;;;;4.70;2.70;;;10.90;80.70;;;;;;6231379;28;20046;-81
2021/11/19 15:00:56;;;;;;;7.60;2.85;;;10.90;80.60;;;;;;6246344;28;20846;-81
2021/11/19 15:04:02;;;;;;;5.63;2.85;;;10.80;80.60;;;;;;6248330;28;20061;-82
2021/11/19 15:07:12;;;;;;;9.55;3.28;;;10.80;80.80;;;;;;6228283;28;20057;-83
2021/11/19 15:10:35;;;;;;;8.43;3.72;;;10.80;80.70;;;;;;6243373;28;20124;-82
2021/11/19 15:13:53;;;;;;;7.53;3.50;;;10.80;81.60;;;;;;6253841;28;20073;-82
2021/11/19 15:16:58;;;;;;;5.75;2.88;;;10.70;81.20;;;;;;6252480;28;20072;-78
2021/11/19 15:20:21;;;;;;;8.25;3.50;;;10.70;81.20;;;;;;6254107;28;20049;-82
2021/11/19 15:23:33;;;;;;;5.90;2.55;;;10.70;81.20;;;;;;6255713;28;20132;-82
2021/11/19 15:26:39;;;;;;;5.60;2.85;;;10.70;81.30;;;;;;6253349;28;20052;-81
2021/11/19 15:29:45;;;;;;;7.30;2.80;;;10.70;81.50;;;;;;6253465;28;20057;-78
2021/11/19 15:32:51;;;;;;;7.25;3.30;;;10.70;81.50;;;;;;6253220;28;20049;-81
2021/11/19 15:36:04;;;;;;;6.45;3.13;;;10.60;81.60;;;;;;6253692;28;20191;-82
2021/11/19 15:39:08;;;;;;;8.70;3.50;;;10.70;81.70;;;;;;6252855;28;20052;-80
2021/11/19 15:42:11;;;;;;;5.63;3.55;;;10.60;81.50;;;;;;6253016;28;20067;-79
2021/11/19 15:45:13;;;;;;;7.57;3.00;;;10.70;81.60;;;;;;6250990;28;20068;-80
2021/11/19 15:48:17;;;;;;;5.20;2.95;;;10.70;81.60;;;;;;6253364;28;20041;-82
2021/11/19 15:51:21;;;;;;;5.90;3.00;;;10.70;81.50;;;;;;6253067;28;20072;-83
2021/11/19 15:54:26;;;;;;;7.45;3.10;;;10.70;81.60;;;;;;6252369;28;20060;-81
2021/11/19 15:57:44;;;;;;;6.22;2.92;;;10.70;81.70;;;;;;6252371;28;20049;-83
2021/11/19 16:00:46;;;;;;;6.03;3.08;;;10.60;82.00;;;;;;6252526;28;20049;-79
2021/11/19 16:04:19;;;;;;;5.25;2.92;;;10.60;82.00;;;;;;6252525;28;20108;-79
2021/11/19 16:07:41;;;;;;;8.93;3.25;;;10.60;81.90;;;;;;6226747;28;20074;-80
2021/11/19 16:11:01;;;;;;;7.07;3.50;;;10.70;81.90;;;;;;6239512;28;20050;-77
2021/11/19 16:14:06;;;;;;;6.03;2.92;;;10.70;81.90;;;;;;6246588;28;20582;-79
2021/11/19 16:17:11;;;;;;;8.48;2.55;;;10.70;81.80;;;;;;6246983;28;20041;-80